createdAt,value
2019-05-16T00:00:16.204Z,11.28
2019-05-16T00:05:23.889Z,12.95
2019-05-16T00:10:28.490Z,10.95
2019-05-16T00:15:33.445Z,10.88
2019-05-16T00:20:39.601Z,12.23
2019-05-16T00:25:47.704Z,8.98
2019-05-16T00:30:53.621Z,11.63
2019-05-16T00:36:05.664Z,11.93
2019-05-16T00:41:10.741Z,10.78
2019-05-16T00:46:15.613Z,11.97
2019-05-16T00:51:20.304Z,10.00
2019-05-16T00:56:26.281Z,12.88
2019-05-16T01:01:34.285Z,12.53
2019-05-16T01:06:38.977Z,9.58
2019-05-16T01:11:44.276Z,11.03
2019-05-16T01:16:48.923Z,13.78
2019-05-16T01:21:53.695Z,11.75
2019-05-16T01:26:58.186Z,12.15
2019-05-16T01:32:02.576Z,14.00
2019-05-16T01:37:08.317Z,17.12
2019-05-16T01:42:14.254Z,11.83
2019-05-16T01:47:18.858Z,13.08
2019-05-16T01:52:23.536Z,11.90
2019-05-16T01:57:28.301Z,14.73
2019-05-16T02:02:33.425Z,15.25
2019-05-16T02:07:44.699Z,16.02
2019-05-16T02:12:49.254Z,14.95
2019-05-16T02:17:53.769Z,13.83
2019-05-16T02:22:59.749Z,13.60
2019-05-16T02:28:04.396Z,14.95
2019-05-16T02:33:11.639Z,15.35
2019-05-16T02:38:16.680Z,16.82
2019-05-16T02:43:26.096Z,15.30
2019-05-16T02:48:31.732Z,13.90
2019-05-16T02:53:34.813Z,17.70
2019-05-16T02:58:44.198Z,17.55
2019-05-16T03:03:45.687Z,14.95
2019-05-16T03:08:50.763Z,16.23
2019-05-16T03:13:56.916Z,16.27
2019-05-16T03:19:05.454Z,15.85
2019-05-16T03:24:11.538Z,17.42
2019-05-16T03:29:17.803Z,18.80
2019-05-16T03:34:25.196Z,18.55
2019-05-16T03:39:31.339Z,18.95
2019-05-16T03:44:36.073Z,19.23
2019-05-16T03:49:43.384Z,21.35
2019-05-16T03:54:50.548Z,18.92
2019-05-16T03:59:55.849Z,21.50
2019-05-16T04:05:01.675Z,17.90
2019-05-16T04:10:11.482Z,24.10
2019-05-16T04:15:16.374Z,18.62
2019-05-16T04:20:21.688Z,16.95
2019-05-16T04:25:27.265Z,21.95
2019-05-16T04:30:34.628Z,21.00
2019-05-16T04:35:41.159Z,19.50
2019-05-16T04:40:45.680Z,20.30
2019-05-16T04:45:52.224Z,20.10
2019-05-16T04:51:01.012Z,18.52
2019-05-16T04:56:04.144Z,16.07
2019-05-16T05:01:11.698Z,20.55
2019-05-16T05:06:26.707Z,15.63
2019-05-16T05:11:33.145Z,14.83
2019-05-16T05:16:37.682Z,16.37
2019-05-16T05:22:01.663Z,16.27
2019-05-16T05:27:06.130Z,16.10
2019-05-16T05:32:14.319Z,15.40
2019-05-16T05:37:20.426Z,16.73
2019-05-16T05:42:24.771Z,15.60
2019-05-16T05:47:30.713Z,16.65
2019-05-16T05:52:35.752Z,15.85
2019-05-16T05:57:40.707Z,14.68
2019-05-16T06:02:46.931Z,13.18
2019-05-16T06:07:51.319Z,14.00
2019-05-16T06:12:55.724Z,11.53
2019-05-16T06:18:00.382Z,12.85
2019-05-16T06:28:10.440Z,10.50
2019-05-16T06:33:14.453Z,10.10
2019-05-16T06:38:21.092Z,12.23
2019-05-16T06:43:25.809Z,12.35
2019-05-16T06:48:30.537Z,8.38
2019-05-16T06:53:35.159Z,9.18
2019-05-16T06:58:47.613Z,7.62
2019-05-16T07:03:45.647Z,10.05
2019-05-16T07:08:50.768Z,8.68
2019-05-16T07:13:55.490Z,8.98
2019-05-16T07:19:00.817Z,8.05
2019-05-16T07:24:05.588Z,9.73
2019-05-16T07:29:10.978Z,6.90
2019-05-16T07:34:15.690Z,7.60
2019-05-16T07:39:20.161Z,8.40
2019-05-16T07:49:27.335Z,8.20
2019-05-16T07:54:34.641Z,6.62
2019-05-16T07:59:37.918Z,7.95
2019-05-16T08:04:42.504Z,6.22
2019-05-16T08:09:46.902Z,7.95
2019-05-16T08:14:51.369Z,8.00
2019-05-16T08:19:55.791Z,8.23
2019-05-16T08:25:00.408Z,6.92
2019-05-16T08:30:07.422Z,9.58
2019-05-16T08:35:12.284Z,8.03
2019-05-16T08:40:21.057Z,6.90
2019-05-16T08:45:23.473Z,7.90
2019-05-16T08:50:27.859Z,6.90
2019-05-16T08:55:32.253Z,7.37
2019-05-16T09:00:36.621Z,10.85
2019-05-16T09:05:42.954Z,10.75
2019-05-16T09:10:59.067Z,5.85
2019-05-16T09:16:04.420Z,4.67
2019-05-16T09:21:08.812Z,11.97
2019-05-16T09:26:16.183Z,10.30
2019-05-16T09:31:19.365Z,11.33
2019-05-16T09:36:23.772Z,7.40
2019-05-16T09:41:46.348Z,6.58
2019-05-16T09:46:34.504Z,6.42
2019-05-16T09:51:39.223Z,11.08
2019-05-16T09:56:43.709Z,5.83
2019-05-16T10:01:48.307Z,9.68
2019-05-16T10:06:52.724Z,5.50
2019-05-16T10:12:08.077Z,5.83
2019-05-16T10:17:03.886Z,8.18
2019-05-16T10:22:08.338Z,8.10
2019-05-16T10:27:12.993Z,6.92
2019-05-16T10:32:17.445Z,5.85
2019-05-16T10:37:21.838Z,6.35
2019-05-16T10:42:28.958Z,7.28
2019-05-16T10:47:33.225Z,7.17
2019-05-16T10:52:37.831Z,7.33
2019-05-16T10:57:42.456Z,5.62
2019-05-16T11:02:46.984Z,14.65
2019-05-16T11:07:53.350Z,5.72
2019-05-16T11:12:59.735Z,5.87
2019-05-16T11:18:03.812Z,5.67
2019-05-16T11:23:09.501Z,7.22
2019-05-16T11:28:13.908Z,7.47
2019-05-16T11:33:18.295Z,8.20
2019-05-16T11:38:22.736Z,8.40
2019-05-16T11:43:27.840Z,9.15
2019-05-16T11:48:32.430Z,7.92
2019-05-16T11:53:37.846Z,6.70
2019-05-16T11:58:42.862Z,9.80
2019-05-16T12:03:47.240Z,9.70
2019-05-16T12:08:52.172Z,10.40
2019-05-16T12:13:56.813Z,7.62
2019-05-16T12:19:01.338Z,8.63
2019-05-16T12:24:07.451Z,8.35
2019-05-16T12:29:12.087Z,9.58
2019-05-16T12:34:16.484Z,8.78
2019-05-16T12:39:20.940Z,9.83
2019-05-16T12:44:26.893Z,9.53
2019-05-16T12:49:31.624Z,7.42
2019-05-16T12:54:37.052Z,8.10
2019-05-16T12:59:49.204Z,10.20
2019-05-16T13:04:48.069Z,8.80
2019-05-16T13:09:52.530Z,7.20
2019-05-16T13:14:56.905Z,10.98
2019-05-16T13:20:01.559Z,9.78
2019-05-16T13:25:08.203Z,9.25
2019-05-16T13:30:13.676Z,11.12
2019-05-16T13:35:18.290Z,10.58
2019-05-16T13:40:22.839Z,8.95
2019-05-16T13:45:27.537Z,9.35
2019-05-16T13:50:36.541Z,8.98
2019-05-16T13:55:40.921Z,8.85
2019-05-16T14:00:48.083Z,9.28
2019-05-16T14:05:51.779Z,10.75
2019-05-16T14:11:01.755Z,8.83
2019-05-16T14:16:02.273Z,13.38
2019-05-16T14:21:06.966Z,11.00
2019-05-16T14:26:11.750Z,11.10
2019-05-16T14:31:17.429Z,9.38
2019-05-16T14:36:22.064Z,11.75
2019-05-16T14:41:27.930Z,10.63
2019-05-16T14:46:32.501Z,11.15
2019-05-16T14:51:38.598Z,9.05
2019-05-16T14:56:47.319Z,9.38
2019-05-16T15:01:50.499Z,9.98
2019-05-16T15:06:57.210Z,9.03
2019-05-16T15:12:01.064Z,9.33
2019-05-16T15:17:06.991Z,10.53
2019-05-16T15:22:13.124Z,11.20
2019-05-16T15:27:17.484Z,9.43
2019-05-16T15:32:21.898Z,11.60
2019-05-16T15:37:27.381Z,10.78
2019-05-16T15:42:31.952Z,10.32
2019-05-16T15:47:37.743Z,10.85
2019-05-16T15:52:43.558Z,16.97
2019-05-16T15:57:47.946Z,12.18
2019-05-16T16:02:53.774Z,10.38
2019-05-16T16:07:58.327Z,14.80
2019-05-16T16:13:02.849Z,12.40
2019-05-16T16:18:09.103Z,10.63
2019-05-16T16:23:13.842Z,13.30
2019-05-16T16:28:18.296Z,10.45
2019-05-16T16:33:29.087Z,11.08
2019-05-16T16:38:28.909Z,8.60
2019-05-16T16:43:33.368Z,10.58
2019-05-16T16:48:37.835Z,9.85
2019-05-16T16:53:42.460Z,10.25
2019-05-16T16:58:46.971Z,17.80
2019-05-16T17:03:54.549Z,10.48
2019-05-16T17:08:57.700Z,9.88
2019-05-16T17:14:02.171Z,10.65
2019-05-16T17:19:07.674Z,13.00
2019-05-16T17:24:12.339Z,12.53
2019-05-16T17:29:17.146Z,11.73
2019-05-16T17:34:21.798Z,11.18
2019-05-16T17:39:27.479Z,9.53
2019-05-16T17:44:38.387Z,9.60
2019-05-16T17:49:42.965Z,9.40
2019-05-16T17:54:47.466Z,8.80
2019-05-16T17:59:51.859Z,9.68
2019-05-16T18:04:56.755Z,9.38
2019-05-16T18:10:01.315Z,11.00
2019-05-16T18:15:08.574Z,13.85
2019-05-16T18:20:13.410Z,10.75
2019-05-16T18:25:18.038Z,9.65
2019-05-16T18:30:27.112Z,9.50
2019-05-16T18:35:31.654Z,14.45
2019-05-16T18:40:36.769Z,8.40
2019-05-16T18:45:41.692Z,13.15
2019-05-16T18:50:47.722Z,11.15
2019-05-16T18:55:52.431Z,11.15
2019-05-16T19:00:57.042Z,10.53
2019-05-16T19:06:03.050Z,12.13
2019-05-16T19:11:07.801Z,14.43
2019-05-16T19:16:13.304Z,16.23
2019-05-16T19:21:19.175Z,13.83
2019-05-16T19:26:31.706Z,19.50
2019-05-16T19:31:50.235Z,15.80
2019-05-16T19:37:02.036Z,15.18
2019-05-16T19:42:17.124Z,16.40
2019-05-16T19:47:34.997Z,13.20
2019-05-16T19:52:47.183Z,15.70
2019-05-16T19:57:59.527Z,16.87
2019-05-16T20:03:07.774Z,14.43
2019-05-16T20:08:13.781Z,14.00
2019-05-16T20:13:20.220Z,14.43
2019-05-16T20:18:31.497Z,17.12
2019-05-16T20:23:39.906Z,15.88
2019-05-16T20:28:47.485Z,12.95
2019-05-16T20:34:00.691Z,17.92
2019-05-16T20:44:28.244Z,17.10
2019-05-16T20:55:17.528Z,15.38
2019-05-16T21:00:26.825Z,15.13
2019-05-16T21:05:32.771Z,12.85
2019-05-16T21:10:43.121Z,12.80
2019-05-16T21:15:51.743Z,13.98
2019-05-16T21:20:57.465Z,14.07
2019-05-16T21:26:05.907Z,16.35
2019-05-16T21:31:10.802Z,17.67
2019-05-16T21:36:16.103Z,15.38
2019-05-16T21:41:31.241Z,14.18
2019-05-16T21:46:40.194Z,15.28
2019-05-16T21:51:46.601Z,14.45
2019-05-16T21:56:51.227Z,22.67
2019-05-16T22:01:57.812Z,20.02
2019-05-16T22:07:02.867Z,16.02
2019-05-16T22:12:07.739Z,15.30
2019-05-16T22:17:28.641Z,24.10
2019-05-16T22:22:29.247Z,18.65
2019-05-16T22:27:31.113Z,18.25
2019-05-16T22:32:38.134Z,20.00
2019-05-16T22:37:52.209Z,21.40
2019-05-16T22:42:51.610Z,23.20
2019-05-16T22:47:57.064Z,20.20
2019-05-16T22:53:02.381Z,24.52
2019-05-16T22:58:09.847Z,27.27
2019-05-16T23:03:14.536Z,23.20
2019-05-16T23:08:23.796Z,26.17
2019-05-16T23:13:28.528Z,31.42
2019-05-16T23:18:33.378Z,26.20
2019-05-16T23:23:39.570Z,23.40
2019-05-16T23:28:47.443Z,24.60
2019-05-16T23:33:52.087Z,23.12
2019-05-16T23:38:57.385Z,21.02
2019-05-16T23:44:04.067Z,21.05
2019-05-16T23:54:11.421Z,20.65
2019-05-16T23:59:17.221Z,21.48
